sensor_id;sensor_type;location;lat;lon;timestamp;P1;durP1;ratioP1;P2;durP2;ratioP2
7340;SDS011;6870;50.944;6.932;2022-12-10T00:01:47;13.03;;;8.27;;
7340;SDS011;6870;50.944;6.932;2022-12-10T00:04:17;11.73;;;8.80;;
7340;SDS011;6870;50.944;6.932;2022-12-10T00:06:46;11.10;;;8.43;;
7340;SDS011;6870;50.944;6.932;2022-12-10T00:09:15;10.13;;;8.30;;
7340;SDS011;6870;50.944;6.932;2022-12-10T00:11:45;9.47;;;8.43;;
7340;SDS011;6870;50.944;6.932;2022-12-10T00:14:13;9.20;;;7.43;;
7340;SDS011;6870;50.944;6.932;2022-12-10T00:16:41;9.80;;;8.80;;
7340;SDS011;6870;50.944;6.932;2022-12-10T00:19:11;11.17;;;8.00;;
7340;SDS011;6870;50.944;6.932;2022-12-10T00:21:39;10.50;;;7.90;;
7340;SDS011;6870;50.944;6.932;2022-12-10T00:24:09;10.37;;;7.80;;
7340;SDS011;6870;50.944;6.932;2022-12-10T00:26:37;9.93;;;8.80;;
7340;SDS011;6870;50.944;6.932;2022-12-10T00:29:07;9.47;;;8.47;;
7340;SDS011;6870;50.944;6.932;2022-12-10T00:31:39;9.67;;;8.07;;
7340;SDS011;6870;50.944;6.932;2022-12-10T00:34:09;10.67;;;8.37;;
7340;SDS011;6870;50.944;6.932;2022-12-10T00:36:40;11.33;;;8.00;;
7340;SDS011;6870;50.944;6.932;2022-12-10T00:39:12;9.17;;;7.97;;
7340;SDS011;6870;50.944;6.932;2022-12-10T00:41:43;9.17;;;7.50;;
7340;SDS011;6870;50.944;6.932;2022-12-10T00:44:11;9.07;;;7.27;;
7340;SDS011;6870;50.944;6.932;2022-12-10T00:46:40;9.20;;;8.20;;
7340;SDS011;6870;50.944;6.932;2022-12-10T00:49:08;10.00;;;7.73;;
7340;SDS011;6870;50.944;6.932;2022-12-10T00:51:38;11.17;;;7.20;;
7340;SDS011;6870;50.944;6.932;2022-12-10T00:54:06;9.40;;;7.27;;
7340;SDS011;6870;50.944;6.932;2022-12-10T00:56:35;7.90;;;6.90;;
7340;SDS011;6870;50.944;6.932;2022-12-10T00:59:04;9.07;;;6.60;;
7340;SDS011;6870;50.944;6.932;2022-12-10T01:01:32;8.97;;;6.67;;
7340;SDS011;6870;50.944;6.932;2022-12-10T01:04:03;9.67;;;7.20;;
7340;SDS011;6870;50.944;6.932;2022-12-10T01:06:34;7.63;;;6.83;;
7340;SDS011;6870;50.944;6.932;2022-12-10T01:09:11;8.97;;;7.20;;
7340;SDS011;6870;50.944;6.932;2022-12-10T01:11:43;21.20;;;17.27;;
7340;SDS011;6870;50.944;6.932;2022-12-10T01:14:17;12.10;;;10.10;;
7340;SDS011;6870;50.944;6.932;2022-12-10T01:16:48;16.03;;;13.10;;
7340;SDS011;6870;50.944;6.932;2022-12-10T01:19:19;14.50;;;11.33;;
7340;SDS011;6870;50.944;6.932;2022-12-10T01:21:50;13.63;;;11.53;;
7340;SDS011;6870;50.944;6.932;2022-12-10T01:24:19;13.63;;;10.80;;
7340;SDS011;6870;50.944;6.932;2022-12-10T01:26:47;14.83;;;11.23;;
7340;SDS011;6870;50.944;6.932;2022-12-10T01:29:15;15.37;;;11.57;;
7340;SDS011;6870;50.944;6.932;2022-12-10T01:31:44;13.77;;;10.87;;
7340;SDS011;6870;50.944;6.932;2022-12-10T01:34:14;12.03;;;9.70;;
7340;SDS011;6870;50.944;6.932;2022-12-10T01:36:42;10.70;;;9.27;;
7340;SDS011;6870;50.944;6.932;2022-12-10T01:39:14;10.57;;;8.83;;
7340;SDS011;6870;50.944;6.932;2022-12-10T01:41:45;10.57;;;9.27;;
7340;SDS011;6870;50.944;6.932;2022-12-10T01:47:33;11.80;;;9.30;;
7340;SDS011;6870;50.944;6.932;2022-12-10T01:50:02;8.93;;;8.00;;
7340;SDS011;6870;50.944;6.932;2022-12-10T01:52:33;8.20;;;7.40;;
7340;SDS011;6870;50.944;6.932;2022-12-10T01:55:07;10.00;;;8.23;;
7340;SDS011;6870;50.944;6.932;2022-12-10T01:58:08;8.07;;;6.83;;
7340;SDS011;6870;50.944;6.932;2022-12-10T02:00:38;9.53;;;8.30;;
7340;SDS011;6870;50.944;6.932;2022-12-10T02:03:15;8.70;;;6.77;;
7340;SDS011;6870;50.944;6.932;2022-12-10T02:05:49;7.13;;;6.40;;
7340;SDS011;6870;50.944;6.932;2022-12-10T02:08:25;8.10;;;7.30;;
7340;SDS011;6870;50.944;6.932;2022-12-10T02:11:02;7.33;;;6.60;;
7340;SDS011;6870;50.944;6.932;2022-12-10T02:13:45;8.30;;;7.10;;
7340;SDS011;6870;50.944;6.932;2022-12-10T02:16:25;7.40;;;6.60;;
7340;SDS011;6870;50.944;6.932;2022-12-10T02:19:00;9.73;;;6.90;;
7340;SDS011;6870;50.944;6.932;2022-12-10T02:21:41;7.57;;;5.77;;
7340;SDS011;6870;50.944;6.932;2022-12-10T02:24:14;7.07;;;6.23;;
7340;SDS011;6870;50.944;6.932;2022-12-10T02:26:50;7.73;;;6.43;;
7340;SDS011;6870;50.944;6.932;2022-12-10T02:29:26;6.93;;;5.93;;
7340;SDS011;6870;50.944;6.932;2022-12-10T02:31:59;6.63;;;5.23;;
7340;SDS011;6870;50.944;6.932;2022-12-10T02:34:33;6.60;;;5.90;;
7340;SDS011;6870;50.944;6.932;2022-12-10T02:37:05;7.33;;;5.97;;
7340;SDS011;6870;50.944;6.932;2022-12-10T02:39:40;5.47;;;4.93;;
7340;SDS011;6870;50.944;6.932;2022-12-10T02:42:14;7.17;;;6.47;;
7340;SDS011;6870;50.944;6.932;2022-12-10T02:44:45;7.77;;;5.43;;
7340;SDS011;6870;50.944;6.932;2022-12-10T02:47:16;7.03;;;6.00;;
7340;SDS011;6870;50.944;6.932;2022-12-10T02:49:45;4.80;;;4.40;;
7340;SDS011;6870;50.944;6.932;2022-12-10T02:52:18;8.47;;;6.20;;
7340;SDS011;6870;50.944;6.932;2022-12-10T02:54:48;7.10;;;5.77;;
7340;SDS011;6870;50.944;6.932;2022-12-10T03:00:14;5.83;;;4.90;;
7340;SDS011;6870;50.944;6.932;2022-12-10T03:02:50;6.10;;;5.50;;
7340;SDS011;6870;50.944;6.932;2022-12-10T03:05:50;6.30;;;4.80;;
7340;SDS011;6870;50.944;6.932;2022-12-10T03:08:27;7.77;;;5.33;;
7340;SDS011;6870;50.944;6.932;2022-12-10T03:11:01;5.33;;;4.83;;
7340;SDS011;6870;50.944;6.932;2022-12-10T03:13:37;5.80;;;5.10;;
7340;SDS011;6870;50.944;6.932;2022-12-10T03:16:14;6.53;;;5.80;;
7340;SDS011;6870;50.944;6.932;2022-12-10T03:18:43;5.50;;;5.00;;
7340;SDS011;6870;50.944;6.932;2022-12-10T03:21:14;5.37;;;4.90;;
7340;SDS011;6870;50.944;6.932;2022-12-10T03:23:45;5.47;;;4.63;;
7340;SDS011;6870;50.944;6.932;2022-12-10T03:26:15;4.87;;;4.40;;
7340;SDS011;6870;50.944;6.932;2022-12-10T03:28:46;5.10;;;4.43;;
7340;SDS011;6870;50.944;6.932;2022-12-10T03:31:19;5.27;;;4.77;;
7340;SDS011;6870;50.944;6.932;2022-12-10T03:33:48;5.00;;;4.53;;
7340;SDS011;6870;50.944;6.932;2022-12-10T03:36:17;6.90;;;4.63;;
7340;SDS011;6870;50.944;6.932;2022-12-10T03:38:46;6.50;;;4.70;;
7340;SDS011;6870;50.944;6.932;2022-12-10T03:41:14;4.83;;;4.20;;
7340;SDS011;6870;50.944;6.932;2022-12-10T03:43:49;6.20;;;4.47;;
7340;SDS011;6870;50.944;6.932;2022-12-10T03:46:21;5.47;;;5.00;;
7340;SDS011;6870;50.944;6.932;2022-12-10T03:48:50;4.77;;;4.27;;
7340;SDS011;6870;50.944;6.932;2022-12-10T03:51:18;4.60;;;4.17;;
7340;SDS011;6870;50.944;6.932;2022-12-10T03:53:47;4.77;;;4.23;;
7340;SDS011;6870;50.944;6.932;2022-12-10T03:56:16;5.50;;;5.00;;
7340;SDS011;6870;50.944;6.932;2022-12-10T03:58:45;8.90;;;5.03;;
7340;SDS011;6870;50.944;6.932;2022-12-10T04:01:13;6.00;;;4.50;;
7340;SDS011;6870;50.944;6.932;2022-12-10T04:03:42;4.53;;;4.13;;
7340;SDS011;6870;50.944;6.932;2022-12-10T04:06:12;4.70;;;4.30;;
7340;SDS011;6870;50.944;6.932;2022-12-10T04:08:43;5.40;;;4.90;;
7340;SDS011;6870;50.944;6.932;2022-12-10T04:11:12;5.03;;;4.53;;
7340;SDS011;6870;50.944;6.932;2022-12-10T04:13:42;4.53;;;4.00;;
7340;SDS011;6870;50.944;6.932;2022-12-10T04:16:29;6.20;;;5.57;;
7340;SDS011;6870;50.944;6.932;2022-12-10T04:19:01;6.13;;;4.80;;
7340;SDS011;6870;50.944;6.932;2022-12-10T04:21:32;4.30;;;3.90;;
7340;SDS011;6870;50.944;6.932;2022-12-10T04:24:20;4.87;;;4.37;;
7340;SDS011;6870;50.944;6.932;2022-12-10T04:27:10;5.60;;;4.53;;
7340;SDS011;6870;50.944;6.932;2022-12-10T04:29:41;5.40;;;4.90;;
7340;SDS011;6870;50.944;6.932;2022-12-10T04:32:09;5.00;;;4.37;;
7340;SDS011;6870;50.944;6.932;2022-12-10T04:34:38;6.00;;;5.13;;
7340;SDS011;6870;50.944;6.932;2022-12-10T04:37:06;5.73;;;5.13;;
7340;SDS011;6870;50.944;6.932;2022-12-10T04:39:34;5.13;;;4.63;;
7340;SDS011;6870;50.944;6.932;2022-12-10T04:42:03;5.27;;;4.70;;
7340;SDS011;6870;50.944;6.932;2022-12-10T04:44:31;4.33;;;3.93;;
7340;SDS011;6870;50.944;6.932;2022-12-10T04:47:00;4.40;;;3.97;;
7340;SDS011;6870;50.944;6.932;2022-12-10T04:49:30;6.17;;;4.30;;
7340;SDS011;6870;50.944;6.932;2022-12-10T04:52:00;4.97;;;4.20;;
7340;SDS011;6870;50.944;6.932;2022-12-10T04:54:28;4.83;;;4.30;;
7340;SDS011;6870;50.944;6.932;2022-12-10T04:57:04;4.63;;;4.10;;
7340;SDS011;6870;50.944;6.932;2022-12-10T04:59:32;5.30;;;4.50;;
7340;SDS011;6870;50.944;6.932;2022-12-10T05:02:00;4.27;;;3.83;;
7340;SDS011;6870;50.944;6.932;2022-12-10T05:04:28;4.57;;;4.07;;
7340;SDS011;6870;50.944;6.932;2022-12-10T05:06:57;5.10;;;4.60;;
7340;SDS011;6870;50.944;6.932;2022-12-10T05:09:26;4.37;;;3.97;;
7340;SDS011;6870;50.944;6.932;2022-12-10T05:11:54;3.80;;;3.50;;
7340;SDS011;6870;50.944;6.932;2022-12-10T05:14:23;4.60;;;3.73;;
7340;SDS011;6870;50.944;6.932;2022-12-10T05:16:51;4.03;;;3.67;;
7340;SDS011;6870;50.944;6.932;2022-12-10T05:19:19;4.33;;;3.93;;
7340;SDS011;6870;50.944;6.932;2022-12-10T05:21:48;4.60;;;4.20;;
7340;SDS011;6870;50.944;6.932;2022-12-10T05:24:35;5.03;;;4.53;;
7340;SDS011;6870;50.944;6.932;2022-12-10T05:27:04;4.47;;;3.70;;
7340;SDS011;6870;50.944;6.932;2022-12-10T05:29:32;7.50;;;4.30;;
7340;SDS011;6870;50.944;6.932;2022-12-10T05:32:01;5.77;;;3.90;;
7340;SDS011;6870;50.944;6.932;2022-12-10T05:34:30;4.00;;;3.67;;
7340;SDS011;6870;50.944;6.932;2022-12-10T05:36:58;5.20;;;4.07;;
7340;SDS011;6870;50.944;6.932;2022-12-10T05:39:27;4.63;;;4.00;;
7340;SDS011;6870;50.944;6.932;2022-12-10T05:41:56;4.80;;;4.33;;
7340;SDS011;6870;50.944;6.932;2022-12-10T05:44:24;4.80;;;4.20;;
7340;SDS011;6870;50.944;6.932;2022-12-10T05:46:52;4.77;;;4.27;;
7340;SDS011;6870;50.944;6.932;2022-12-10T05:49:20;5.03;;;3.80;;
7340;SDS011;6870;50.944;6.932;2022-12-10T05:51:48;5.63;;;3.77;;
7340;SDS011;6870;50.944;6.932;2022-12-10T05:54:16;5.63;;;3.53;;
7340;SDS011;6870;50.944;6.932;2022-12-10T05:56:44;6.30;;;3.60;;
7340;SDS011;6870;50.944;6.932;2022-12-10T05:59:13;6.30;;;4.00;;
7340;SDS011;6870;50.944;6.932;2022-12-10T06:01:42;4.83;;;4.30;;
7340;SDS011;6870;50.944;6.932;2022-12-10T06:04:11;3.83;;;3.53;;
7340;SDS011;6870;50.944;6.932;2022-12-10T06:06:40;4.67;;;3.73;;
7340;SDS011;6870;50.944;6.932;2022-12-10T06:09:10;3.90;;;3.50;;
7340;SDS011;6870;50.944;6.932;2022-12-10T06:11:40;5.87;;;3.90;;
7340;SDS011;6870;50.944;6.932;2022-12-10T06:14:08;4.30;;;3.77;;
7340;SDS011;6870;50.944;6.932;2022-12-10T06:16:39;4.10;;;3.63;;
7340;SDS011;6870;50.944;6.932;2022-12-10T06:19:08;6.10;;;3.70;;
7340;SDS011;6870;50.944;6.932;2022-12-10T06:21:37;3.87;;;3.57;;
7340;SDS011;6870;50.944;6.932;2022-12-10T06:24:05;4.03;;;2.97;;
7340;SDS011;6870;50.944;6.932;2022-12-10T06:26:34;5.03;;;3.80;;
7340;SDS011;6870;50.944;6.932;2022-12-10T06:29:02;3.70;;;3.20;;
7340;SDS011;6870;50.944;6.932;2022-12-10T06:31:31;4.07;;;3.63;;
7340;SDS011;6870;50.944;6.932;2022-12-10T06:34:01;4.87;;;4.00;;
7340;SDS011;6870;50.944;6.932;2022-12-10T06:36:29;4.93;;;4.50;;
7340;SDS011;6870;50.944;6.932;2022-12-10T06:38:57;4.27;;;3.20;;
7340;SDS011;6870;50.944;6.932;2022-12-10T06:41:25;4.63;;;3.70;;
7340;SDS011;6870;50.944;6.932;2022-12-10T06:43:54;6.20;;;4.10;;
7340;SDS011;6870;50.944;6.932;2022-12-10T06:46:25;3.60;;;3.30;;
7340;SDS011;6870;50.944;6.932;2022-12-10T06:48:54;4.10;;;3.50;;
7340;SDS011;6870;50.944;6.932;2022-12-10T06:51:24;4.00;;;3.57;;
7340;SDS011;6870;50.944;6.932;2022-12-10T06:53:52;3.50;;;3.20;;
7340;SDS011;6870;50.944;6.932;2022-12-10T06:56:20;5.10;;;4.20;;
7340;SDS011;6870;50.944;6.932;2022-12-10T06:58:49;4.50;;;4.10;;
7340;SDS011;6870;50.944;6.932;2022-12-10T07:01:18;3.93;;;3.53;;
7340;SDS011;6870;50.944;6.932;2022-12-10T07:03:48;4.40;;;3.60;;
7340;SDS011;6870;50.944;6.932;2022-12-10T07:06:17;3.87;;;3.47;;
7340;SDS011;6870;50.944;6.932;2022-12-10T07:08:47;4.80;;;3.90;;
7340;SDS011;6870;50.944;6.932;2022-12-10T07:11:17;4.80;;;4.40;;
7340;SDS011;6870;50.944;6.932;2022-12-10T07:13:46;3.63;;;3.23;;
7340;SDS011;6870;50.944;6.932;2022-12-10T07:16:15;4.70;;;3.63;;
7340;SDS011;6870;50.944;6.932;2022-12-10T07:18:46;3.80;;;3.50;;
7340;SDS011;6870;50.944;6.932;2022-12-10T07:21:18;3.93;;;3.43;;
7340;SDS011;6870;50.944;6.932;2022-12-10T07:23:51;5.63;;;3.73;;
7340;SDS011;6870;50.944;6.932;2022-12-10T07:26:24;4.23;;;3.33;;
7340;SDS011;6870;50.944;6.932;2022-12-10T07:28:52;3.83;;;3.03;;
7340;SDS011;6870;50.944;6.932;2022-12-10T07:31:22;4.60;;;3.67;;
7340;SDS011;6870;50.944;6.932;2022-12-10T07:33:50;4.73;;;3.00;;
7340;SDS011;6870;50.944;6.932;2022-12-10T07:36:20;3.83;;;3.43;;
7340;SDS011;6870;50.944;6.932;2022-12-10T07:38:49;4.07;;;3.77;;
7340;SDS011;6870;50.944;6.932;2022-12-10T07:41:20;3.90;;;3.50;;
7340;SDS011;6870;50.944;6.932;2022-12-10T07:43:49;8.50;;;3.33;;
7340;SDS011;6870;50.944;6.932;2022-12-10T07:46:19;3.20;;;2.90;;
7340;SDS011;6870;50.944;6.932;2022-12-10T07:48:49;3.60;;;3.17;;
7340;SDS011;6870;50.944;6.932;2022-12-10T07:51:19;3.83;;;3.13;;
7340;SDS011;6870;50.944;6.932;2022-12-10T07:53:52;3.80;;;3.23;;
7340;SDS011;6870;50.944;6.932;2022-12-10T07:56:20;4.20;;;3.80;;
7340;SDS011;6870;50.944;6.932;2022-12-10T07:58:49;4.23;;;3.20;;
7340;SDS011;6870;50.944;6.932;2022-12-10T08:01:19;3.70;;;3.27;;
7340;SDS011;6870;50.944;6.932;2022-12-10T08:03:50;3.73;;;3.40;;
7340;SDS011;6870;50.944;6.932;2022-12-10T08:06:22;4.43;;;3.60;;
7340;SDS011;6870;50.944;6.932;2022-12-10T08:08:54;5.23;;;3.20;;
7340;SDS011;6870;50.944;6.932;2022-12-10T08:11:24;3.20;;;2.90;;
7340;SDS011;6870;50.944;6.932;2022-12-10T08:13:54;4.37;;;3.30;;
7340;SDS011;6870;50.944;6.932;2022-12-10T08:16:24;5.47;;;3.27;;
7340;SDS011;6870;50.944;6.932;2022-12-10T08:18:55;3.43;;;2.87;;
7340;SDS011;6870;50.944;6.932;2022-12-10T08:21:25;4.27;;;3.27;;
7340;SDS011;6870;50.944;6.932;2022-12-10T08:23:56;5.60;;;3.53;;
7340;SDS011;6870;50.944;6.932;2022-12-10T08:26:27;3.93;;;3.53;;
7340;SDS011;6870;50.944;6.932;2022-12-10T08:28:58;3.97;;;3.07;;
7340;SDS011;6870;50.944;6.932;2022-12-10T08:31:27;4.80;;;3.23;;
7340;SDS011;6870;50.944;6.932;2022-12-10T08:34:03;4.50;;;3.20;;
7340;SDS011;6870;50.944;6.932;2022-12-10T08:36:32;3.60;;;3.10;;
7340;SDS011;6870;50.944;6.932;2022-12-10T08:39:01;6.53;;;3.00;;
7340;SDS011;6870;50.944;6.932;2022-12-10T08:41:30;3.90;;;3.50;;
7340;SDS011;6870;50.944;6.932;2022-12-10T08:43:58;4.07;;;3.23;;
7340;SDS011;6870;50.944;6.932;2022-12-10T08:46:26;5.67;;;2.90;;
7340;SDS011;6870;50.944;6.932;2022-12-10T08:48:54;3.30;;;3.00;;
7340;SDS011;6870;50.944;6.932;2022-12-10T08:51:22;2.97;;;2.60;;
7340;SDS011;6870;50.944;6.932;2022-12-10T08:53:51;3.20;;;2.87;;
7340;SDS011;6870;50.944;6.932;2022-12-10T08:56:20;4.30;;;3.20;;
7340;SDS011;6870;50.944;6.932;2022-12-10T08:58:48;4.00;;;3.10;;
7340;SDS011;6870;50.944;6.932;2022-12-10T09:01:17;3.40;;;3.10;;
7340;SDS011;6870;50.944;6.932;2022-12-10T09:03:46;3.40;;;3.10;;
7340;SDS011;6870;50.944;6.932;2022-12-10T09:06:14;3.20;;;2.90;;
7340;SDS011;6870;50.944;6.932;2022-12-10T09:08:45;6.30;;;3.57;;
7340;SDS011;6870;50.944;6.932;2022-12-10T09:11:14;3.17;;;2.70;;
7340;SDS011;6870;50.944;6.932;2022-12-10T09:13:46;4.50;;;3.20;;
7340;SDS011;6870;50.944;6.932;2022-12-10T09:16:14;4.97;;;3.20;;
7340;SDS011;6870;50.944;6.932;2022-12-10T09:18:43;4.93;;;2.80;;
7340;SDS011;6870;50.944;6.932;2022-12-10T09:21:12;3.43;;;3.13;;
7340;SDS011;6870;50.944;6.932;2022-12-10T09:23:42;2.60;;;2.33;;
7340;SDS011;6870;50.944;6.932;2022-12-10T09:26:12;4.53;;;3.00;;
7340;SDS011;6870;50.944;6.932;2022-12-10T09:28:43;3.03;;;2.70;;
7340;SDS011;6870;50.944;6.932;2022-12-10T09:31:13;3.97;;;3.03;;
7340;SDS011;6870;50.944;6.932;2022-12-10T09:33:46;3.20;;;2.90;;
7340;SDS011;6870;50.944;6.932;2022-12-10T09:36:16;5.60;;;3.00;;
7340;SDS011;6870;50.944;6.932;2022-12-10T09:38:44;5.13;;;3.43;;
7340;SDS011;6870;50.944;6.932;2022-12-10T09:41:29;4.00;;;3.53;;
7340;SDS011;6870;50.944;6.932;2022-12-10T09:44:08;3.70;;;2.83;;
7340;SDS011;6870;50.944;6.932;2022-12-10T09:46:47;3.63;;;2.90;;
7340;SDS011;6870;50.944;6.932;2022-12-10T09:49:21;4.70;;;2.80;;
7340;SDS011;6870;50.944;6.932;2022-12-10T09:52:01;4.53;;;2.87;;
7340;SDS011;6870;50.944;6.932;2022-12-10T09:54:33;3.50;;;3.10;;
7340;SDS011;6870;50.944;6.932;2022-12-10T09:57:05;5.03;;;3.07;;
7340;SDS011;6870;50.944;6.932;2022-12-10T09:59:39;3.87;;;2.90;;
7340;SDS011;6870;50.944;6.932;2022-12-10T10:02:18;4.87;;;3.27;;
7340;SDS011;6870;50.944;6.932;2022-12-10T10:04:50;4.77;;;3.50;;
7340;SDS011;6870;50.944;6.932;2022-12-10T10:07:24;3.80;;;2.67;;
7340;SDS011;6870;50.944;6.932;2022-12-10T10:09:56;4.57;;;3.00;;
7340;SDS011;6870;50.944;6.932;2022-12-10T10:12:30;3.50;;;2.77;;
7340;SDS011;6870;50.944;6.932;2022-12-10T10:15:09;3.30;;;3.00;;
7340;SDS011;6870;50.944;6.932;2022-12-10T10:17:43;5.53;;;3.03;;
7340;SDS011;6870;50.944;6.932;2022-12-10T10:20:13;5.70;;;3.83;;
7340;SDS011;6870;50.944;6.932;2022-12-10T10:22:41;5.27;;;2.90;;
7340;SDS011;6870;50.944;6.932;2022-12-10T10:25:12;3.53;;;3.23;;
7340;SDS011;6870;50.944;6.932;2022-12-10T10:27:43;3.47;;;3.10;;
7340;SDS011;6870;50.944;6.932;2022-12-10T10:30:13;3.80;;;3.50;;
7340;SDS011;6870;50.944;6.932;2022-12-10T10:32:46;4.83;;;3.00;;
7340;SDS011;6870;50.944;6.932;2022-12-10T10:35:24;3.83;;;3.47;;
7340;SDS011;6870;50.944;6.932;2022-12-10T10:37:56;2.83;;;2.40;;
7340;SDS011;6870;50.944;6.932;2022-12-10T10:40:29;30.80;;;22.20;;
7340;SDS011;6870;50.944;6.932;2022-12-10T10:43:00;43.87;;;31.47;;
7340;SDS011;6870;50.944;6.932;2022-12-10T10:45:33;54.17;;;32.13;;
7340;SDS011;6870;50.944;6.932;2022-12-10T10:48:08;47.40;;;34.07;;
7340;SDS011;6870;50.944;6.932;2022-12-10T10:50:41;47.57;;;32.73;;
7340;SDS011;6870;50.944;6.932;2022-12-10T10:53:22;45.30;;;30.93;;
7340;SDS011;6870;50.944;6.932;2022-12-10T10:56:00;45.47;;;30.77;;
7340;SDS011;6870;50.944;6.932;2022-12-10T10:58:34;42.97;;;29.67;;
7340;SDS011;6870;50.944;6.932;2022-12-10T11:01:04;49.90;;;31.90;;
7340;SDS011;6870;50.944;6.932;2022-12-10T11:03:36;45.57;;;28.13;;
7340;SDS011;6870;50.944;6.932;2022-12-10T11:06:13;50.20;;;32.00;;
7340;SDS011;6870;50.944;6.932;2022-12-10T11:08:42;49.87;;;30.30;;
7340;SDS011;6870;50.944;6.932;2022-12-10T11:11:13;47.37;;;32.97;;
7340;SDS011;6870;50.944;6.932;2022-12-10T11:13:47;46.80;;;30.53;;
7340;SDS011;6870;50.944;6.932;2022-12-10T11:16:17;46.03;;;29.87;;
7340;SDS011;6870;50.944;6.932;2022-12-10T11:18:54;50.83;;;30.47;;
7340;SDS011;6870;50.944;6.932;2022-12-10T11:21:28;45.00;;;28.50;;
7340;SDS011;6870;50.944;6.932;2022-12-10T11:23:58;39.70;;;26.37;;
7340;SDS011;6870;50.944;6.932;2022-12-10T11:26:31;44.17;;;27.37;;
7340;SDS011;6870;50.944;6.932;2022-12-10T11:29:16;46.17;;;30.07;;
7340;SDS011;6870;50.944;6.932;2022-12-10T11:32:01;38.80;;;26.00;;
7340;SDS011;6870;50.944;6.932;2022-12-10T11:34:53;29.05;;;21.70;;
7340;SDS011;6870;50.944;6.932;2022-12-10T11:37:33;22.13;;;15.50;;
7340;SDS011;6870;50.944;6.932;2022-12-10T11:40:19;18.13;;;13.10;;
7340;SDS011;6870;50.944;6.932;2022-12-10T11:43:01;20.30;;;13.60;;
7340;SDS011;6870;50.944;6.932;2022-12-10T11:46:03;16.57;;;11.90;;
7340;SDS011;6870;50.944;6.932;2022-12-10T11:48:45;21.33;;;13.43;;
7340;SDS011;6870;50.944;6.932;2022-12-10T11:51:26;22.60;;;12.33;;
7340;SDS011;6870;50.944;6.932;2022-12-10T11:54:05;14.60;;;11.40;;
7340;SDS011;6870;50.944;6.932;2022-12-10T11:56:49;16.77;;;10.40;;
7340;SDS011;6870;50.944;6.932;2022-12-10T11:59:26;15.80;;;10.27;;
7340;SDS011;6870;50.944;6.932;2022-12-10T12:02:27;16.60;;;10.07;;
7340;SDS011;6870;50.944;6.932;2022-12-10T12:05:19;19.13;;;9.33;;
7340;SDS011;6870;50.944;6.932;2022-12-10T12:08:07;18.50;;;9.30;;
7340;SDS011;6870;50.944;6.932;2022-12-10T12:10:58;11.30;;;8.20;;
7340;SDS011;6870;50.944;6.932;2022-12-10T12:13:46;16.60;;;9.70;;
7340;SDS011;6870;50.944;6.932;2022-12-10T12:16:23;12.33;;;8.00;;
7340;SDS011;6870;50.944;6.932;2022-12-10T12:18:59;11.90;;;7.97;;
7340;SDS011;6870;50.944;6.932;2022-12-10T12:21:30;11.93;;;8.70;;
7340;SDS011;6870;50.944;6.932;2022-12-10T12:24:01;11.60;;;8.40;;
7340;SDS011;6870;50.944;6.932;2022-12-10T12:26:35;10.97;;;7.87;;
7340;SDS011;6870;50.944;6.932;2022-12-10T12:29:10;9.77;;;8.10;;
7340;SDS011;6870;50.944;6.932;2022-12-10T12:31:46;8.83;;;6.90;;
7340;SDS011;6870;50.944;6.932;2022-12-10T12:34:20;10.33;;;7.37;;
7340;SDS011;6870;50.944;6.932;2022-12-10T12:36:53;9.90;;;8.00;;
7340;SDS011;6870;50.944;6.932;2022-12-10T12:39:26;7.77;;;6.90;;
7340;SDS011;6870;50.944;6.932;2022-12-10T12:42:03;13.47;;;8.63;;
7340;SDS011;6870;50.944;6.932;2022-12-10T12:44:41;11.63;;;7.93;;
7340;SDS011;6870;50.944;6.932;2022-12-10T12:47:29;9.77;;;7.33;;
7340;SDS011;6870;50.944;6.932;2022-12-10T12:50:11;9.90;;;6.87;;
7340;SDS011;6870;50.944;6.932;2022-12-10T12:52:53;9.50;;;6.50;;
7340;SDS011;6870;50.944;6.932;2022-12-10T12:55:29;8.53;;;6.47;;
7340;SDS011;6870;50.944;6.932;2022-12-10T12:58:11;19.20;;;7.87;;
7340;SDS011;6870;50.944;6.932;2022-12-10T13:00:50;11.00;;;7.07;;
7340;SDS011;6870;50.944;6.932;2022-12-10T13:03:27;9.07;;;6.50;;
7340;SDS011;6870;50.944;6.932;2022-12-10T13:06:12;12.87;;;7.40;;
7340;SDS011;6870;50.944;6.932;2022-12-10T13:08:49;8.57;;;6.50;;
7340;SDS011;6870;50.944;6.932;2022-12-10T13:11:32;11.33;;;6.03;;
7340;SDS011;6870;50.944;6.932;2022-12-10T13:17:24;9.00;;;7.20;;
7340;SDS011;6870;50.944;6.932;2022-12-10T13:23:00;8.77;;;6.80;;
7340;SDS011;6870;50.944;6.932;2022-12-10T13:25:42;8.33;;;7.20;;
7340;SDS011;6870;50.944;6.932;2022-12-10T13:28:30;16.43;;;6.47;;
7340;SDS011;6870;50.944;6.932;2022-12-10T13:31:17;10.63;;;6.90;;
7340;SDS011;6870;50.944;6.932;2022-12-10T13:34:18;9.90;;;6.50;;
7340;SDS011;6870;50.944;6.932;2022-12-10T13:40:02;17.50;;;6.30;;
7340;SDS011;6870;50.944;6.932;2022-12-10T13:42:55;18.30;;;8.73;;
7340;SDS011;6870;50.944;6.932;2022-12-10T13:45:44;10.70;;;6.13;;
7340;SDS011;6870;50.944;6.932;2022-12-10T13:48:17;11.53;;;6.50;;
7340;SDS011;6870;50.944;6.932;2022-12-10T13:51:02;12.13;;;6.20;;
7340;SDS011;6870;50.944;6.932;2022-12-10T13:53:45;13.03;;;6.83;;
7340;SDS011;6870;50.944;6.932;2022-12-10T13:56:26;6.97;;;5.60;;
7340;SDS011;6870;50.944;6.932;2022-12-10T13:59:01;8.70;;;5.73;;
7340;SDS011;6870;50.944;6.932;2022-12-10T14:01:49;9.30;;;6.27;;
7340;SDS011;6870;50.944;6.932;2022-12-10T14:04:34;7.47;;;5.43;;
7340;SDS011;6870;50.944;6.932;2022-12-10T14:07:18;8.70;;;6.07;;
7340;SDS011;6870;50.944;6.932;2022-12-10T14:09:48;6.27;;;5.50;;
7340;SDS011;6870;50.944;6.932;2022-12-10T14:12:19;8.83;;;6.80;;
7340;SDS011;6870;50.944;6.932;2022-12-10T14:14:54;9.53;;;6.30;;
7340;SDS011;6870;50.944;6.932;2022-12-10T14:17:31;9.07;;;6.90;;
7340;SDS011;6870;50.944;6.932;2022-12-10T14:20:03;7.70;;;5.80;;
7340;SDS011;6870;50.944;6.932;2022-12-10T14:22:37;7.07;;;6.10;;
7340;SDS011;6870;50.944;6.932;2022-12-10T14:25:12;9.80;;;5.90;;
7340;SDS011;6870;50.944;6.932;2022-12-10T14:27:42;7.53;;;6.37;;
7340;SDS011;6870;50.944;6.932;2022-12-10T14:30:15;6.90;;;5.47;;
7340;SDS011;6870;50.944;6.932;2022-12-10T14:32:47;7.87;;;6.23;;
7340;SDS011;6870;50.944;6.932;2022-12-10T14:35:19;8.80;;;6.30;;
7340;SDS011;6870;50.944;6.932;2022-12-10T14:37:51;6.83;;;5.50;;
7340;SDS011;6870;50.944;6.932;2022-12-10T14:40:23;8.13;;;6.80;;
7340;SDS011;6870;50.944;6.932;2022-12-10T14:42:55;8.13;;;6.50;;
7340;SDS011;6870;50.944;6.932;2022-12-10T14:45:31;8.30;;;6.57;;
7340;SDS011;6870;50.944;6.932;2022-12-10T14:48:10;8.33;;;6.30;;
7340;SDS011;6870;50.944;6.932;2022-12-10T14:50:39;8.17;;;6.40;;
7340;SDS011;6870;50.944;6.932;2022-12-10T14:53:10;8.37;;;6.20;;
7340;SDS011;6870;50.944;6.932;2022-12-10T14:55:42;7.43;;;5.83;;
7340;SDS011;6870;50.944;6.932;2022-12-10T14:58:14;6.70;;;5.70;;
7340;SDS011;6870;50.944;6.932;2022-12-10T15:00:49;6.67;;;5.67;;
7340;SDS011;6870;50.944;6.932;2022-12-10T15:03:22;7.30;;;6.20;;
7340;SDS011;6870;50.944;6.932;2022-12-10T15:05:55;7.40;;;6.00;;
7340;SDS011;6870;50.944;6.932;2022-12-10T15:08:26;11.60;;;6.43;;
7340;SDS011;6870;50.944;6.932;2022-12-10T15:10:56;7.07;;;5.93;;
7340;SDS011;6870;50.944;6.932;2022-12-10T15:13:27;9.50;;;6.50;;
7340;SDS011;6870;50.944;6.932;2022-12-10T15:16:00;6.67;;;6.03;;
7340;SDS011;6870;50.944;6.932;2022-12-10T15:18:30;8.43;;;6.20;;
7340;SDS011;6870;50.944;6.932;2022-12-10T15:21:03;6.47;;;5.80;;
7340;SDS011;6870;50.944;6.932;2022-12-10T15:23:36;7.37;;;6.30;;
7340;SDS011;6870;50.944;6.932;2022-12-10T15:26:10;7.37;;;6.07;;
7340;SDS011;6870;50.944;6.932;2022-12-10T15:28:46;6.33;;;5.73;;
7340;SDS011;6870;50.944;6.932;2022-12-10T15:31:19;7.50;;;5.80;;
7340;SDS011;6870;50.944;6.932;2022-12-10T15:33:56;6.30;;;5.70;;
7340;SDS011;6870;50.944;6.932;2022-12-10T15:36:28;6.57;;;5.90;;
7340;SDS011;6870;50.944;6.932;2022-12-10T15:39:03;6.97;;;5.67;;
7340;SDS011;6870;50.944;6.932;2022-12-10T15:41:34;5.33;;;4.83;;
7340;SDS011;6870;50.944;6.932;2022-12-10T15:47:00;7.90;;;5.27;;
7340;SDS011;6870;50.944;6.932;2022-12-10T15:49:33;8.93;;;6.23;;
7340;SDS011;6870;50.944;6.932;2022-12-10T15:52:02;6.80;;;6.10;;
7340;SDS011;6870;50.944;6.932;2022-12-10T15:54:31;8.17;;;5.23;;
7340;SDS011;6870;50.944;6.932;2022-12-10T15:57:06;7.10;;;5.00;;
7340;SDS011;6870;50.944;6.932;2022-12-10T15:59:40;7.30;;;5.97;;
7340;SDS011;6870;50.944;6.932;2022-12-10T16:02:12;7.73;;;5.57;;
7340;SDS011;6870;50.944;6.932;2022-12-10T16:04:55;6.00;;;5.13;;